^^
Grace C. Lehan Memorial Weather Station Historical Data
Daily Summary for May 3, 2021 Units:  Metric    English   Both
Daily Weekly Monthly Yearly
  High: Low: Average:
Temperature: 23.7 °C 12.9 °C 18.4 °C
Dew Point: 15.5 °C 11.1 °C 13 °C
Humidity: 90% 52.1% 72%
Wind Speed: 8.7km/h 0km/h 1.1km/h
Wind Gust: 20.9km/h - -
Wind- - West
Pressure: 1015.5 hPa 1013.4 hPa -
Precipitation: 0 mm    
 
 
Tabular Data for May 3, 2021
Time Temperature Dew Point Pressure Wind Wind Speed Wind Gust Humidity Rainfall Rate (Hourly) solar
00:09 15.7 °C 11.5 °C 1014.1 hPa Calm     76% 0 mm 0 W/m2
00:14 15.6 °C 11.5 °C 1014.1 hPa Calm   1.6 km/h 76.5% 0 mm 0 W/m2
00:19 15.5 °C 11.5 °C 1014.1 hPa Calm   1.6 km/h 77% 0 mm 0 W/m2
00:24 15.4 °C 11.4 °C 1014.1 hPa Calm   1.6 km/h 77% 0 mm 0 W/m2
00:29 15.3 °C 11.3 °C 1014.1 hPa Calm   1.6 km/h 77.1% 0 mm 0 W/m2
00:34 15.3 °C 11.6 °C 1014.1 hPa Calm   1.6 km/h 78.5% 0 mm 0 W/m2
00:39 15.2 °C 11.6 °C 1014.1 hPa Calm     79% 0 mm 0 W/m2
00:44 15.1 °C 11.4 °C 1014.1 hPa Calm     79% 0 mm 0 W/m2
00:49 14.9 °C 11.4 °C 1014.1 hPa Calm     79.4% 0 mm 0 W/m2
00:54 14.9 °C 11.5 °C 1014.1 hPa Calm     80% 0 mm 0 W/m2
00:59 14.8 °C 11.4 °C 1014.1 hPa Calm     80% 0 mm 0 W/m2
01:04 14.8 °C 11.4 °C 1014.1 hPa Calm     80.1% 0 mm 0 W/m2
01:09 14.7 °C 11.4 °C 1014.1 hPa Calm     81% 0 mm 0 W/m2
01:14 14.6 °C 11.3 °C 1014.1 hPa Calm     81% 0 mm 0 W/m2
01:19 14.5 °C 11.3 °C 1014.1 hPa Calm     81% 0 mm 0 W/m2
01:24 14.4 °C 11.3 °C 1014.1 hPa Calm     81.9% 0 mm 0 W/m2
01:29 14.3 °C 11.3 °C 1014.1 hPa Calm     82% 0 mm 0 W/m2
01:34 14.2 °C 11.2 °C 1014.1 hPa Calm     82% 0 mm 0 W/m2
01:39 14.1 °C 11.3 °C 1014.1 hPa Calm     83% 0 mm 0 W/m2
01:44 14.1 °C 11.2 °C 1013.8 hPa Calm     83.2% 0 mm 0 W/m2
01:49 13.9 °C 11.3 °C 1013.8 hPa Calm     84% 0 mm 0 W/m2
01:54 13.8 °C 11.3 °C 1013.8 hPa Calm     84.7% 0 mm 0 W/m2
01:59 13.8 °C 11.3 °C 1013.8 hPa Calm     85% 0 mm 0 W/m2
02:04 13.7 °C 11.3 °C 1014.1 hPa Calm     85% 0 mm 0 W/m2
02:09 13.7 °C 11.5 °C 1014.1 hPa Calm     86.2% 0 mm 0 W/m2
02:14 13.8 °C 11.7 °C 1014.1 hPa Calm     87% 0 mm 0 W/m2
02:19 13.8 °C 11.6 °C 1014.1 hPa Calm     86.7% 0 mm 0 W/m2
02:24 13.8 °C 11.5 °C 1014.1 hPa Calm     86% 0 mm 0 W/m2
02:29 13.8 °C 11.4 °C 1014.1 hPa Calm     86% 0 mm 0 W/m2
02:34 13.8 °C 11.4 °C 1014.1 hPa Calm     86% 0 mm 0 W/m2
02:39 13.8 °C 11.6 °C 1014.1 hPa Calm     86.4% 0 mm 0 W/m2
02:44 13.9 °C 11.8 °C 1014.1 hPa Calm     87% 0 mm 0 W/m2
02:49 14 °C 11.8 °C 1014.1 hPa Calm     87% 0 mm 0 W/m2
02:54 14 °C 11.8 °C 1014.1 hPa Calm     86.8% 0 mm 0 W/m2
02:59 14 °C 11.8 °C 1014.1 hPa Calm     86.6% 0 mm 0 W/m2
03:04 14 °C 11.7 °C 1014.1 hPa Calm     86% 0 mm 0 W/m2
03:09 14.1 °C 11.7 °C 1014.1 hPa Calm     86% 0 mm 0 W/m2
03:14 14.1 °C 11.8 °C 1014.1 hPa Calm     86% 0 mm 0 W/m2
03:19 14.2 °C 11.8 °C 1014.1 hPa Calm     86% 0 mm 0 W/m2
03:24 14.2 °C 11.8 °C 1014.1 hPa Calm     85.5% 0 mm 0 W/m2
03:29 14.2 °C 11.8 °C 1014.1 hPa Calm     85% 0 mm 0 W/m2
03:34 14.3 °C 11.8 °C 1014.1 hPa NNW 1.3 km/h 8 km/h 85% 0 mm 0 W/m2
03:39 14.3 °C 11.8 °C 1014.1 hPa NNW 1 km/h 8 km/h 84.6% 0 mm 0 W/m2
03:44 14.3 °C 11.7 °C 1014.1 hPa NW 2.9 km/h 17.7 km/h 84% 0 mm 0 W/m2
03:49 14.3 °C 11.7 °C 1013.8 hPa North 0.5 km/h 17.7 km/h 84% 0 mm 0 W/m2
03:54 14.4 °C 11.7 °C 1013.8 hPa Calm   17.7 km/h 84% 0 mm 0 W/m2
03:59 14.4 °C 11.7 °C 1013.8 hPa Calm   17.7 km/h 84% 0 mm 0 W/m2
04:00 14.4 °C 11.7 °C 1013.8 hPa Calm   17.7 km/h 84% 0 mm 0 W/m2
04:09 14.4 °C 11.7 °C 1013.8 hPa Calm     83.6% 0 mm 0 W/m2
04:14 14.3 °C 11.7 °C 1013.8 hPa NW 1 km/h 9.7 km/h 84% 0 mm 0 W/m2
04:19 14.3 °C 11.6 °C 1013.8 hPa NW 0.3 km/h 9.7 km/h 83.8% 0 mm 0 W/m2
04:24 14.3 °C 11.6 °C 1013.8 hPa Calm   9.7 km/h 84% 0 mm 0 W/m2
04:29 14.2 °C 11.6 °C 1013.8 hPa NW 0.3 km/h 9.7 km/h 84% 0 mm 0 W/m2
04:34 14.2 °C 11.6 °C 1013.8 hPa Calm   9.7 km/h 84% 0 mm 0 W/m2
04:39 14.2 °C 11.5 °C 1013.8 hPa Calm     84% 0 mm 0 W/m2
04:44 14.1 °C 11.4 °C 1013.8 hPa Calm     84% 0 mm 0 W/m2
04:49 14 °C 11.4 °C 1013.8 hPa Calm     84% 0 mm 0 W/m2
04:54 13.9 °C 11.4 °C 1013.8 hPa Calm     84.4% 0 mm 0 W/m2
04:59 13.9 °C 11.4 °C 1013.8 hPa Calm     85% 0 mm 0 W/m2
05:04 13.8 °C 11.3 °C 1013.8 hPa Calm     84.7% 0 mm 0 W/m2
05:09 13.8 °C 11.3 °C 1014.1 hPa Calm     85% 0 mm 0 W/m2
05:14 13.7 °C 11.2 °C 1014.1 hPa Calm     85% 0 mm 0 W/m2
05:19 13.6 °C 11.2 °C 1014.1 hPa Calm     85.2% 0 mm 0 W/m2
05:24 13.5 °C 11.1 °C 1014.1 hPa Calm     85.5% 0 mm 0 W/m2
05:29 13.4 °C 11.1 °C 1014.1 hPa Calm     86% 0 mm 0 W/m2
05:34 13.3 °C 11.2 °C 1014.1 hPa Calm     86.5% 0 mm 0 W/m2
05:39 13.3 °C 11.2 °C 1014.1 hPa Calm     87% 0 mm 0 W/m2
05:44 13.2 °C 11.1 °C 1014.1 hPa Calm   1.6 km/h 87% 0 mm 0 W/m2
05:49 13.3 °C 11.3 °C 1014.1 hPa Calm   1.6 km/h 87.8% 0 mm 0 W/m2
05:54 13.3 °C 11.3 °C 1014.1 hPa Calm   1.6 km/h 87.6% 0 mm 0 W/m2
05:59 13.2 °C 11.1 °C 1014.1 hPa Calm   1.6 km/h 87% 0 mm 0 W/m2
06:04 13.2 °C 11.1 °C 1014.1 hPa Calm   1.6 km/h 87.5% 0 mm 0 W/m2
06:09 13.1 °C 11.2 °C 1014.1 hPa Calm     88% 0 mm 0 W/m2
06:14 13.1 °C 11.1 °C 1014.1 hPa Calm     88% 0 mm 0 W/m2
06:19 13.1 °C 11.1 °C 1014.1 hPa Calm     88% 0 mm 0 W/m2
06:24 13 °C 11.1 °C 1014.1 hPa Calm     88% 0 mm 0 W/m2
06:29 13 °C 11.1 °C 1014.1 hPa Calm     88% 0 mm 5 W/m2
06:34 13 °C 11.2 °C 1014.4 hPa Calm     88.7% 0 mm 7 W/m2
06:39 13 °C 11.2 °C 1014.4 hPa Calm     89% 0 mm 7 W/m2
06:44 12.9 °C 11.2 °C 1014.4 hPa Calm     89% 0 mm 12 W/m2
06:49 12.9 °C 11.2 °C 1014.4 hPa Calm     89% 0 mm 14 W/m2
06:54 12.9 °C 11.1 °C 1014.8 hPa Calm     89% 0 mm 14 W/m2
06:59 12.9 °C 11.1 °C 1014.8 hPa Calm     89% 0 mm 14 W/m2
07:04 12.9 °C 11.2 °C 1014.8 hPa Calm     89.4% 0 mm 16 W/m2
07:09 12.9 °C 11.3 °C 1014.8 hPa Calm     90% 0 mm 18 W/m2
07:14 12.9 °C 11.3 °C 1014.8 hPa Calm     90% 0 mm 21 W/m2
07:19 12.9 °C 11.3 °C 1014.8 hPa Calm     90% 0 mm 21 W/m2
07:24 12.9 °C 11.4 °C 1014.8 hPa Calm     90% 0 mm 21 W/m2
07:29 13.1 °C 11.5 °C 1014.8 hPa Calm     90% 0 mm 21 W/m2
07:34 13.2 °C 11.6 °C 1015.1 hPa Calm     90% 0 mm 21 W/m2
07:39 13.4 °C 11.8 °C 1015.1 hPa NW 0.2 km/h 3.2 km/h 90% 0 mm 23 W/m2
07:44 13.6 °C 11.9 °C 1015.1 hPa Calm   3.2 km/h 89.7% 0 mm 25 W/m2
07:49 13.7 °C 11.9 °C 1015.1 hPa NW 0.2 km/h 3.2 km/h 89% 0 mm 30 W/m2
07:54 13.9 °C 12.1 °C 1015.1 hPa NW 0.3 km/h 4.8 km/h 88.9% 0 mm 33 W/m2
07:59 14.1 °C 12.1 °C 1015.1 hPa NNE 0.2 km/h 4.8 km/h 88% 0 mm 39 W/m2
08:00 14.2 °C 12.2 °C 1015.1 hPa Calm   4.8 km/h 88% 0 mm 39 W/m2
08:09 14.4 °C 12.1 °C 1015.1 hPa Calm     86% 0 mm 63 W/m2
08:14 14.7 °C 12.2 °C 1015.1 hPa Calm     85.5% 0 mm 63 W/m2
08:19 14.8 °C 12.3 °C 1015.1 hPa NNE 0.5 km/h 6.4 km/h 85% 0 mm 134 W/m2
08:24 15.1 °C 12.6 °C 1015.1 hPa Calm   6.4 km/h 84.8% 0 mm 371 W/m2
08:29 15.4 °C 12.7 °C 1015.1 hPa Calm   6.4 km/h 84% 0 mm 390 W/m2
08:34 15.8 °C 13.1 °C 1015.1 hPa NNE 0.2 km/h 6.4 km/h 83.7% 0 mm 408 W/m2
08:39 16.5 °C 13.4 °C 1015.1 hPa Calm   3.2 km/h 82.1% 0 mm 425 W/m2
08:44 17.1 °C 13.6 °C 1015.1 hPa North 0.6 km/h 4.8 km/h 79.8% 0 mm 439 W/m2
08:49 17.7 °C 13.7 °C 1015.1 hPa NE 0.2 km/h 4.8 km/h 77.1% 0 mm 457 W/m2
08:54 18.2 °C 13.9 °C 1015.1 hPa Calm   4.8 km/h 76.3% 0 mm 475 W/m2
08:59 18.7 °C 13.9 °C 1015.1 hPa East 0.5 km/h 8 km/h 73.8% 0 mm 492 W/m2
09:04 19.2 °C 13.9 °C 1015.1 hPa East 0.6 km/h 8 km/h 71.5% 0 mm 506 W/m2
09:09 19.5 °C 14.3 °C 1015.1 hPa NE 0.2 km/h 4.8 km/h 72% 0 mm 520 W/m2
09:14 19.8 °C 14.3 °C 1015.1 hPa NW 1.8 km/h 8 km/h 70.4% 0 mm 536 W/m2
09:19 20.1 °C 14.4 °C 1015.1 hPa NW 1.1 km/h 8 km/h 69.6% 0 mm 550 W/m2
09:24 20.4 °C 14.7 °C 1015.1 hPa North 0.5 km/h 8 km/h 69.8% 0 mm 564 W/m2
09:29 20.6 °C 14.6 °C 1015.1 hPa North 0.2 km/h 8 km/h 68.3% 0 mm 580 W/m2
09:34 20.6 °C 14.6 °C 1015.1 hPa North 1.4 km/h 8 km/h 68.1% 0 mm 596 W/m2
09:39 20.7 °C 14.6 °C 1015.1 hPa NE 0.5 km/h 6.4 km/h 68% 0 mm 608 W/m2
09:44 20.9 °C 14.7 °C 1015.1 hPa ENE 0.3 km/h 6.4 km/h 67.6% 0 mm 624 W/m2
09:49 21.1 °C 14.9 °C 1015.1 hPa Calm   6.4 km/h 68.1% 0 mm 636 W/m2
09:54 21.3 °C 15.3 °C 1015.1 hPa NNW 1.9 km/h 9.7 km/h 68.5% 0 mm 650 W/m2
09:59 21.6 °C 15.1 °C 1015.1 hPa ENE 0.5 km/h 9.7 km/h 66.4% 0 mm 663 W/m2
10:04 21.8 °C 15.2 °C 1015.1 hPa NW 1.8 km/h 11.3 km/h 65.8% 0 mm 677 W/m2
10:09 22.1 °C 15.2 °C 1015.1 hPa North 2.1 km/h 11.3 km/h 64.8% 0 mm 691 W/m2
10:14 22.2 °C 14.8 °C 1015.1 hPa NE 1.6 km/h 11.3 km/h 62.9% 0 mm 700 W/m2
10:19 22.2 °C 14.9 °C 1015.1 hPa NW 2.4 km/h 14.5 km/h 63.3% 0 mm 712 W/m2
10:24 22.2 °C 14.7 °C 1015.1 hPa ENE 1.1 km/h 14.5 km/h 62.4% 0 mm 731 W/m2
10:29 22.3 °C 15.5 °C 1015.1 hPa NNE 1.4 km/h 14.5 km/h 65.3% 0 mm 782 W/m2
10:34 22.6 °C 15.2 °C 1015.1 hPa NNE 1.1 km/h 14.5 km/h 63.2% 0 mm 812 W/m2
10:39 22.8 °C 15.1 °C 1015.1 hPa NNW 3.4 km/h 17.7 km/h 61.8% 0 mm 812 W/m2
10:44 23 °C 15.2 °C 1015.1 hPa NW 4.2 km/h 17.7 km/h 61.6% 0 mm 798 W/m2
10:49 23.2 °C 14.9 °C 1015.1 hPa NW 4.3 km/h 17.7 km/h 60% 0 mm 842 W/m2
10:54 23.3 °C 15.1 °C 1015.1 hPa NW 3.9 km/h 17.7 km/h 60% 0 mm 872 W/m2
10:59 23.1 °C 14.8 °C 1015.1 hPa NNW 1.3 km/h 17.7 km/h 59.3% 0 mm 872 W/m2
11:04 22.8 °C 14.6 °C 1014.8 hPa NW 4.2 km/h 17.7 km/h 60% 0 mm 881 W/m2
11:09 22.5 °C 14.9 °C 1014.8 hPa WNW 4.5 km/h 16.1 km/h 62% 0 mm 911 W/m2
11:14 22.4 °C 14.6 °C 1014.8 hPa WNW 6.4 km/h 16.1 km/h 61.2% 0 mm 1011 W/m2
11:19 22.5 °C 14.7 °C 1014.8 hPa NW 2.1 km/h 16.1 km/h 61.2% 0 mm 241 W/m2
11:24 22.3 °C 14.4 °C 1014.8 hPa NW 1.3 km/h 16.1 km/h 61% 0 mm 137 W/m2
11:29 22.1 °C 14.3 °C 1014.8 hPa NW 3.4 km/h 16.1 km/h 61.3% 0 mm 940 W/m2
11:34 21.9 °C 14.6 °C 1014.8 hPa NW 3.1 km/h 16.1 km/h 62.7% 0 mm 972 W/m2
11:39 22.2 °C 14.9 °C 1014.8 hPa NW 2.3 km/h 9.7 km/h 63.3% 0 mm 1041 W/m2
11:44 22.6 °C 14.7 °C 1014.8 hPa NW 2.4 km/h 11.3 km/h 61% 0 mm 1041 W/m2
11:49 22.8 °C 14.2 °C 1014.8 hPa NW 6.1 km/h 17.7 km/h 58.2% 0 mm 1018 W/m2
11:54 22.6 °C 13.6 °C 1014.4 hPa NW 6.4 km/h 17.7 km/h 56.7% 0 mm 932 W/m2
11:59 22.4 °C 13.8 °C 1014.4 hPa North 1.8 km/h 17.7 km/h 58.2% 0 mm 946 W/m2
12:00 22.4 °C 13.7 °C 1014.4 hPa Calm   17.7 km/h 58% 0 mm 925 W/m2
12:09 22.7 °C 14.2 °C 1014.4 hPa NNW 2.3 km/h 19.3 km/h 58.9% 0 mm 179 W/m2
12:14 22.8 °C 14.5 °C 1014.4 hPa NNW 1.6 km/h 19.3 km/h 59.6% 0 mm 227 W/m2
12:19 22.8 °C 13.9 °C 1014.4 hPa North 3.4 km/h 19.3 km/h 57.1% 0 mm 223 W/m2
12:24 22.7 °C 13.7 °C 1014.4 hPa NNE 2.4 km/h 19.3 km/h 56.7% 0 mm 304 W/m2
12:29 22.5 °C 13.4 °C 1014.1 hPa North 0.5 km/h 19.3 km/h 56.3% 0 mm 209 W/m2
12:34 22.4 °C 14.1 °C 1014.1 hPa NW 2.9 km/h 19.3 km/h 59.3% 0 mm 223 W/m2
12:39 22.4 °C 13.8 °C 1014.1 hPa WNW 3.7 km/h 16.1 km/h 58.2% 0 mm 287 W/m2
12:44 22.5 °C 13.8 °C 1014.1 hPa NW 6.6 km/h 17.7 km/h 58% 0 mm 239 W/m2
12:49 22.5 °C 13.6 °C 1014.1 hPa WNW 5 km/h 17.7 km/h 57.2% 0 mm 232 W/m2
12:54 22.4 °C 13.7 °C 1014.1 hPa NNW 1.8 km/h 17.7 km/h 57.6% 0 mm 232 W/m2
12:59 22.5 °C 13.7 °C 1014.1 hPa NE 2.1 km/h 17.7 km/h 57.5% 0 mm 251 W/m2
13:04 22.4 °C 13.7 °C 1014.1 hPa NE 0.8 km/h 17.7 km/h 57.8% 0 mm 251 W/m2
13:09 22.4 °C 13.9 °C 1014.1 hPa NNE 2.1 km/h 9.7 km/h 58.5% 0 mm 686 W/m2
13:14 22.4 °C 13.7 °C 1014.1 hPa North 0.3 km/h 9.7 km/h 58% 0 mm 204 W/m2
13:18 22.4 °C 13.8 °C 1014.1 hPa NE 2.3 km/h 14.5 km/h 58.2% 0 mm 186 W/m2
13:24 22.3 °C 13.9 °C 1014.1 hPa NW 1.8 km/h 14.5 km/h 59% 0 mm 1081 W/m2
13:29 22.6 °C 14.2 °C 1014.1 hPa NNW 5.5 km/h 19.3 km/h 59.4% 0 mm 1081 W/m2
13:34 22.7 °C 13.6 °C 1014.1 hPa NNW 1 km/h 19.3 km/h 56.7% 0 mm 169 W/m2
13:39 22.4 °C 13.4 °C 1014.1 hPa NNW 4.3 km/h 19.3 km/h 56.7% 0 mm 234 W/m2
13:44 22.3 °C 13.7 °C 1014.1 hPa NNW 1.8 km/h 19.3 km/h 58.3% 0 mm 466 W/m2
13:49 22.3 °C 13.9 °C 1014.1 hPa NW 5 km/h 19.3 km/h 59.2% 0 mm 272 W/m2
13:54 22.4 °C 14 °C 1014.1 hPa NNW 4.2 km/h 19.3 km/h 59% 0 mm 390 W/m2
13:59 22.4 °C 13.8 °C 1014.1 hPa NNW 1.3 km/h 19.3 km/h 58% 0 mm 390 W/m2
14:04 22.4 °C 13.9 °C 1014.1 hPa NW 0.5 km/h 19.3 km/h 58.6% 0 mm 207 W/m2
14:09 22.5 °C 14.2 °C 1014.1 hPa WNW 1.6 km/h 12.9 km/h 59.5% 0 mm 221 W/m2
14:14 22.6 °C 14.3 °C 1014.1 hPa NNW 3.9 km/h 14.5 km/h 59.6% 0 mm 990 W/m2
14:19 22.7 °C 14.1 °C 1014.1 hPa NW 2.9 km/h 14.5 km/h 58.5% 0 mm 990 W/m2
14:24 22.7 °C 13.7 °C 1013.8 hPa NW 4.8 km/h 20.9 km/h 56.6% 0 mm 357 W/m2
14:29 22.7 °C 13.4 °C 1013.8 hPa North 0.5 km/h 20.9 km/h 55.9% 0 mm 199 W/m2
14:34 22.6 °C 13.6 °C 1013.8 hPa North 1.3 km/h 20.9 km/h 56.9% 0 mm 279 W/m2
14:39 22.6 °C 13.9 °C 1013.8 hPa NNW 2.6 km/h 9.7 km/h 58.2% 0 mm 394 W/m2
14:44 22.6 °C 13.9 °C 1013.8 hPa NNW 3.2 km/h 14.5 km/h 58% 0 mm 318 W/m2
14:49 22.6 °C 13.7 °C 1013.8 hPa NNW 1.8 km/h 14.5 km/h 57% 0 mm 192 W/m2
14:54 22.6 °C 14 °C 1013.8 hPa NNW 0.2 km/h 14.5 km/h 58.2% 0 mm 965 W/m2
14:59 22.7 °C 13.8 °C 1013.8 hPa NNW 2.9 km/h 14.5 km/h 57% 0 mm 965 W/m2
15:04 22.8 °C 13.3 °C 1013.8 hPa NW 4.2 km/h 14.5 km/h 54.7% 0 mm 983 W/m2
15:09 22.9 °C 13.2 °C 1013.8 hPa NW 4 km/h 14.5 km/h 54.3% 0 mm 865 W/m2
15:14 23.2 °C 13.9 °C 1013.4 hPa NW 2.6 km/h 14.5 km/h 56% 0 mm 942 W/m2
15:19 23.4 °C 13.7 °C 1013.4 hPa NNW 1.3 km/h 14.5 km/h 54.5% 0 mm 942 W/m2
15:24 23.6 °C 14.2 °C 1013.4 hPa NNW 0.8 km/h 14.5 km/h 55.5% 0 mm 279 W/m2
15:29 23.7 °C 13.8 °C 1013.4 hPa NNW 5.6 km/h 17.7 km/h 53.8% 0 mm 162 W/m2
15:34 23.6 °C 13.2 °C 1013.8 hPa NW 4 km/h 17.7 km/h 52.1% 0 mm 148 W/m2
15:39 23.3 °C 13.4 °C 1013.8 hPa NNW 5.8 km/h 14.5 km/h 53.9% 0 mm 132 W/m2
15:44 23.1 °C 13.4 °C 1013.8 hPa NW 3.5 km/h 14.5 km/h 54.5% 0 mm 744 W/m2
15:49 23 °C 13.3 °C 1013.8 hPa NW 4.2 km/h 14.5 km/h 54.5% 0 mm 782 W/m2
15:54 23.1 °C 13.4 °C 1013.8 hPa WNW 2.6 km/h 14.5 km/h 54.4% 0 mm 782 W/m2
15:59 23.1 °C 13.1 °C 1013.8 hPa WNW 1.8 km/h 14.5 km/h 53.3% 0 mm 120 W/m2
16:00 23.1 °C 13.6 °C 1013.8 hPa Calm   14.5 km/h 55% 0 mm 97 W/m2
16:09 22.9 °C 12.9 °C 1013.8 hPa NW 1 km/h 6.4 km/h 53.6% 0 mm 83 W/m2
16:14 22.8 °C 13.2 °C 1013.8 hPa NW 1.6 km/h 8 km/h 54.8% 0 mm 63 W/m2
16:19 22.6 °C 13.1 °C 1013.8 hPa NW 3.1 km/h 11.3 km/h 54.7% 0 mm 62 W/m2
16:24 22.6 °C 13.3 °C 1013.8 hPa NNW 1.9 km/h 11.3 km/h 56.1% 0 mm 93 W/m2
16:29 22.6 °C 13.3 °C 1013.8 hPa NW 3.1 km/h 14.5 km/h 55.7% 0 mm 93 W/m2
16:34 22.7 °C 12.9 °C 1013.8 hPa WNW 4.3 km/h 14.5 km/h 54.1% 0 mm 62 W/m2
16:39 22.8 °C 13.1 °C 1013.8 hPa WNW 3.5 km/h 16.1 km/h 54.3% 0 mm 37 W/m2
16:44 22.8 °C 13.2 °C 1013.8 hPa West 2.4 km/h 16.1 km/h 54.8% 0 mm 39 W/m2
16:49 22.8 °C 13.5 °C 1013.8 hPa WNW 1.9 km/h 16.1 km/h 55.6% 0 mm 63 W/m2
16:54 22.8 °C 13.6 °C 1013.8 hPa WNW 3.7 km/h 16.1 km/h 56% 0 mm 63 W/m2
16:59 22.9 °C 13.4 °C 1013.8 hPa NNW 3.5 km/h 16.1 km/h 55.2% 0 mm 76 W/m2
17:04 23 °C 13.7 °C 1013.8 hPa West 3.4 km/h 16.1 km/h 55.7% 0 mm 90 W/m2
17:09 23.1 °C 13.3 °C 1013.8 hPa WNW 8.7 km/h 19.3 km/h 54.2% 0 mm 90 W/m2
17:14 23.1 °C 13.2 °C 1013.8 hPa NW 5.3 km/h 19.3 km/h 53.6% 0 mm 63 W/m2
17:19 23.1 °C 13.5 °C 1013.8 hPa NNW 4 km/h 19.3 km/h 54.7% 0 mm 54 W/m2
17:24 23.1 °C 13.4 °C 1013.8 hPa NNW 3.2 km/h 19.3 km/h 54.4% 0 mm 49 W/m2
17:29 23.1 °C 13.3 °C 1013.8 hPa NW 3.7 km/h 19.3 km/h 54% 0 mm 69 W/m2
17:34 23.1 °C 13.2 °C 1013.8 hPa NNW 1 km/h 19.3 km/h 53.7% 0 mm 62 W/m2
17:39 23.1 °C 13.3 °C 1013.8 hPa NNW 3.2 km/h 11.3 km/h 54.2% 0 mm 60 W/m2
17:44 22.9 °C 13.1 °C 1013.8 hPa NW 6.1 km/h 16.1 km/h 53.8% 0 mm 25 W/m2
17:49 22.8 °C 13.3 °C 1013.8 hPa NNW 2.1 km/h 16.1 km/h 55% 0 mm 25 W/m2
17:54 22.7 °C 13.6 °C 1013.8 hPa NNW 2.7 km/h 16.1 km/h 56.3% 0 mm 23 W/m2
17:59 22.5 °C 12.8 °C 1013.8 hPa WNW 2.7 km/h 16.1 km/h 54.3% 0 mm 21 W/m2
18:04 22.3 °C 12.8 °C 1013.8 hPa NW 0.8 km/h 16.1 km/h 54.8% 0 mm 21 W/m2
18:09 22.2 °C 12.9 °C 1013.8 hPa NNW 1.6 km/h 11.3 km/h 55.5% 0 mm 21 W/m2
18:14 22.2 °C 12.9 °C 1013.8 hPa NNW 3.7 km/h 11.3 km/h 55.7% 0 mm 21 W/m2
18:19 22.1 °C 13.1 °C 1013.8 hPa NW 2.3 km/h 11.3 km/h 56.8% 0 mm 19 W/m2
18:24 21.9 °C 13.2 °C 1013.8 hPa WNW 1 km/h 11.3 km/h 57.6% 0 mm 19 W/m2
18:29 21.8 °C 13.2 °C 1013.8 hPa WNW 1.3 km/h 11.3 km/h 58% 0 mm 16 W/m2
18:34 21.7 °C 13.2 °C 1013.8 hPa WNW 0.8 km/h 11.3 km/h 58.2% 0 mm 16 W/m2
18:39 21.6 °C 13.1 °C 1013.8 hPa WNW 0.8 km/h 8 km/h 58.5% 0 mm 16 W/m2
18:44 21.5 °C 13.3 °C 1013.8 hPa WNW 0.8 km/h 8 km/h 59.7% 0 mm 14 W/m2
18:49 21.4 °C 13.3 °C 1013.8 hPa WNW 0.2 km/h 8 km/h 60% 0 mm 12 W/m2
18:54 21.3 °C 13.3 °C 1013.8 hPa WNW 0.8 km/h 8 km/h 60.4% 0 mm 11 W/m2
18:59 21.2 °C 13.3 °C 1013.8 hPa Calm   8 km/h 60.8% 0 mm 9 W/m2
19:04 21.1 °C 13.4 °C 1013.8 hPa Calm   8 km/h 61.5% 0 mm 7 W/m2
19:09 20.9 °C 13.6 °C 1014.1 hPa WNW 0.5 km/h 4.8 km/h 62.7% 0 mm 5 W/m2
19:14 20.8 °C 13.8 °C 1013.8 hPa Calm   4.8 km/h 64% 0 mm 0 W/m2
19:19 20.7 °C 13.6 °C 1014.1 hPa Calm   4.8 km/h 64% 0 mm 0 W/m2
19:24 20.5 °C 13.6 °C 1014.1 hPa Calm   4.8 km/h 64.4% 0 mm 0 W/m2
19:29 20.4 °C 13.6 °C 1014.1 hPa Calm   4.8 km/h 65% 0 mm 0 W/m2
19:34 20.2 °C 13.7 °C 1014.4 hPa Calm   4.8 km/h 65.9% 0 mm 0 W/m2
19:39 20.1 °C 13.7 °C 1014.4 hPa Calm     66.9% 0 mm 0 W/m2
19:44 19.9 °C 13.8 °C 1014.4 hPa Calm     68% 0 mm 0 W/m2
19:49 19.7 °C 13.8 °C 1014.4 hPa Calm     68.7% 0 mm 0 W/m2
19:54 19.6 °C 13.8 °C 1014.4 hPa Calm     69.3% 0 mm 0 W/m2
19:59 19.4 °C 13.8 °C 1014.4 hPa Calm     70.1% 0 mm 0 W/m2
20:00 19.3 °C 13.9 °C 1014.4 hPa Calm     71% 0 mm 0 W/m2
20:09 19 °C 14 °C 1014.8 hPa Calm     72.9% 0 mm 0 W/m2
20:14 18.8 °C 13.9 °C 1014.8 hPa Calm     73% 0 mm 0 W/m2
20:19 18.6 °C 13.8 °C 1014.8 hPa Calm     73.7% 0 mm 0 W/m2
20:24 18.4 °C 13.8 °C 1014.8 hPa Calm     74.3% 0 mm 0 W/m2
20:29 18.3 °C 13.6 °C 1014.8 hPa Calm     74% 0 mm 0 W/m2
20:34 18.2 °C 13.7 °C 1014.8 hPa Calm     74.9% 0 mm 0 W/m2
20:39 18.1 °C 13.7 °C 1014.8 hPa Calm     75.2% 0 mm 0 W/m2
20:44 18.1 °C 13.7 °C 1015.1 hPa Calm     75.8% 0 mm 0 W/m2
20:49 18 °C 13.7 °C 1015.1 hPa Calm     76% 0 mm 0 W/m2
20:54 17.9 °C 13.6 °C 1015.1 hPa Calm     76% 0 mm 0 W/m2
20:59 17.8 °C 13.8 °C 1015.1 hPa Calm     77% 0 mm 0 W/m2
21:04 17.8 °C 13.7 °C 1015.1 hPa Calm     77% 0 mm 0 W/m2
21:09 17.7 °C 13.5 °C 1015.1 hPa Calm     76.6% 0 mm 0 W/m2
21:14 17.6 °C 13.4 °C 1015.1 hPa Calm     76.5% 0 mm 0 W/m2
21:19 17.6 °C 13.5 °C 1015.1 hPa Calm     77% 0 mm 0 W/m2
21:24 17.5 °C 13.4 °C 1015.1 hPa Calm     77% 0 mm 0 W/m2
21:29 17.4 °C 13.4 °C 1015.1 hPa Calm     77% 0 mm 0 W/m2
21:34 17.4 °C 13.4 °C 1015.1 hPa Calm   1.6 km/h 77.7% 0 mm 0 W/m2
21:39 17.3 °C 13.4 °C 1015.1 hPa WNW 0.2 km/h 4.8 km/h 78% 0 mm 0 W/m2
21:44 17.2 °C 13.4 °C 1015.1 hPa Calm   4.8 km/h 78% 0 mm 0 W/m2
21:49 17.2 °C 13.4 °C 1015.1 hPa WNW 0.3 km/h 4.8 km/h 78.8% 0 mm 0 W/m2
21:54 17.1 °C 13.4 °C 1015.1 hPa Calm   4.8 km/h 79% 0 mm 0 W/m2
21:59 17.1 °C 13.4 °C 1015.1 hPa Calm   4.8 km/h 79.2% 0 mm 0 W/m2
22:04 17.1 °C 13.6 °C 1015.1 hPa Calm   4.8 km/h 80% 0 mm 0 W/m2
22:09 17 °C 13.6 °C 1015.1 hPa Calm     80% 0 mm 0 W/m2
22:14 17 °C 13.5 °C 1015.1 hPa Calm     80% 0 mm 0 W/m2
22:19 16.9 °C 13.5 °C 1015.1 hPa Calm     80% 0 mm 0 W/m2
22:24 16.9 °C 13.6 °C 1015.1 hPa Calm   1.6 km/h 80.6% 0 mm 0 W/m2
22:29 16.8 °C 13.6 °C 1015.5 hPa WNW 0.2 km/h 4.8 km/h 81% 0 mm 0 W/m2
22:34 16.8 °C 13.5 °C 1015.1 hPa Calm   4.8 km/h 81% 0 mm 0 W/m2
22:39 16.7 °C 13.4 °C 1015.1 hPa Calm   1.6 km/h 81% 0 mm 0 W/m2
22:44 16.7 °C 13.4 °C 1015.1 hPa WNW 0.8 km/h 6.4 km/h 81% 0 mm 0 W/m2
22:49 16.7 °C 13.4 °C 1015.5 hPa WNW 0.5 km/h 6.4 km/h 81% 0 mm 0 W/m2
22:54 16.7 °C 13.4 °C 1015.5 hPa WNW 0.6 km/h 6.4 km/h 81% 0 mm 0 W/m2
22:59 16.7 °C 13.4 °C 1015.5 hPa WNW 0.2 km/h 6.4 km/h 81% 0 mm 0 W/m2
23:04 16.7 °C 13.4 °C 1015.5 hPa WNW 0.2 km/h 6.4 km/h 81% 0 mm 0 W/m2
23:09 16.7 °C 13.4 °C 1015.5 hPa WNW 0.3 km/h 4.8 km/h 81% 0 mm 0 W/m2
23:14 16.7 °C 13.4 °C 1015.5 hPa WNW 1.4 km/h 9.7 km/h 81% 0 mm 0 W/m2
23:19 16.8 °C 13.5 °C 1015.5 hPa WNW 2.6 km/h 9.7 km/h 81% 0 mm 0 W/m2
23:24 16.8 °C 13.5 °C 1015.5 hPa WNW 1 km/h 9.7 km/h 81% 0 mm 0 W/m2
23:29 16.8 °C 13.6 °C 1015.5 hPa WNW 0.5 km/h 11.3 km/h 81% 0 mm 0 W/m2
23:34 16.9 °C 13.6 °C 1015.5 hPa WNW 2.3 km/h 11.3 km/h 81% 0 mm 0 W/m2
23:39 16.9 °C 13.7 °C 1015.5 hPa WNW 2.3 km/h 11.3 km/h 81% 0 mm 0 W/m2
23:44 16.9 °C 13.7 °C 1015.5 hPa WNW 2.6 km/h 11.3 km/h 81% 0 mm 0 W/m2
23:49 17 °C 13.7 °C 1015.5 hPa WNW 1.6 km/h 11.3 km/h 81% 0 mm 0 W/m2
23:54 17 °C 13.7 °C 1015.5 hPa West 1.6 km/h 11.3 km/h 81% 0 mm 0 W/m2
23:59 16.9 °C 13.7 °C 1015.5 hPa WNW 2.9 km/h 19.3 km/h 81% 0 mm 0 W/m2
Hartford County Weather
Compliments of Weather Underground - 2 mb